sensor_id;sensor_type;location;lat;lon;timestamp;P1;durP1;ratioP1;P2;durP2;ratioP2
37309;SDS011;23195;47.744;7.358;2022-12-11T00:00:47;88.83;;;35.37;;
37309;SDS011;23195;47.744;7.358;2022-12-11T00:03:15;86.87;;;35.13;;
37309;SDS011;23195;47.744;7.358;2022-12-11T00:05:41;93.87;;;36.90;;
37309;SDS011;23195;47.744;7.358;2022-12-11T00:08:08;94.43;;;36.43;;
37309;SDS011;23195;47.744;7.358;2022-12-11T00:10:34;87.10;;;34.23;;
37309;SDS011;23195;47.744;7.358;2022-12-11T00:13:03;92.67;;;38.57;;
37309;SDS011;23195;47.744;7.358;2022-12-11T00:15:29;86.63;;;35.07;;
37309;SDS011;23195;47.744;7.358;2022-12-11T00:17:58;81.93;;;35.43;;
37309;SDS011;23195;47.744;7.358;2022-12-11T00:20:24;89.90;;;35.77;;
37309;SDS011;23195;47.744;7.358;2022-12-11T00:22:53;91.33;;;35.13;;
37309;SDS011;23195;47.744;7.358;2022-12-11T00:25:26;86.47;;;34.97;;
37309;SDS011;23195;47.744;7.358;2022-12-11T00:27:52;87.60;;;36.37;;
37309;SDS011;23195;47.744;7.358;2022-12-11T00:30:23;89.97;;;36.60;;
37309;SDS011;23195;47.744;7.358;2022-12-11T00:32:55;82.67;;;33.73;;
37309;SDS011;23195;47.744;7.358;2022-12-11T00:35:21;78.97;;;33.27;;
37309;SDS011;23195;47.744;7.358;2022-12-11T00:37:46;78.93;;;33.40;;
37309;SDS011;23195;47.744;7.358;2022-12-11T00:40:15;78.73;;;34.90;;
37309;SDS011;23195;47.744;7.358;2022-12-11T00:42:40;72.83;;;34.00;;
37309;SDS011;23195;47.744;7.358;2022-12-11T00:45:06;72.77;;;30.23;;
37309;SDS011;23195;47.744;7.358;2022-12-11T00:47:33;70.03;;;30.37;;
37309;SDS011;23195;47.744;7.358;2022-12-11T00:49:59;63.60;;;29.27;;
37309;SDS011;23195;47.744;7.358;2022-12-11T00:52:25;67.63;;;28.93;;
37309;SDS011;23195;47.744;7.358;2022-12-11T00:54:53;59.90;;;27.13;;
37309;SDS011;23195;47.744;7.358;2022-12-11T00:57:19;68.63;;;29.63;;
37309;SDS011;23195;47.744;7.358;2022-12-11T00:59:47;59.87;;;27.20;;
37309;SDS011;23195;47.744;7.358;2022-12-11T01:02:13;58.37;;;25.47;;
37309;SDS011;23195;47.744;7.358;2022-12-11T01:04:39;60.70;;;27.63;;
37309;SDS011;23195;47.744;7.358;2022-12-11T01:07:08;68.23;;;28.30;;
37309;SDS011;23195;47.744;7.358;2022-12-11T01:09:36;54.87;;;24.67;;
37309;SDS011;23195;47.744;7.358;2022-12-11T01:12:20;48.80;;;22.33;;
37309;SDS011;23195;47.744;7.358;2022-12-11T01:14:49;45.97;;;21.50;;
37309;SDS011;23195;47.744;7.358;2022-12-11T01:17:18;50.67;;;21.90;;
37309;SDS011;23195;47.744;7.358;2022-12-11T01:19:44;43.37;;;19.83;;
37309;SDS011;23195;47.744;7.358;2022-12-11T01:22:10;45.30;;;20.30;;
37309;SDS011;23195;47.744;7.358;2022-12-11T01:24:36;43.87;;;20.47;;
37309;SDS011;23195;47.744;7.358;2022-12-11T01:27:11;47.30;;;19.90;;
37309;SDS011;23195;47.744;7.358;2022-12-11T01:29:37;41.87;;;19.23;;
37309;SDS011;23195;47.744;7.358;2022-12-11T01:32:08;45.93;;;21.17;;
37309;SDS011;23195;47.744;7.358;2022-12-11T01:34:37;47.03;;;20.60;;
37309;SDS011;23195;47.744;7.358;2022-12-11T01:37:03;46.87;;;20.93;;
37309;SDS011;23195;47.744;7.358;2022-12-11T01:39:28;50.07;;;22.50;;
37309;SDS011;23195;47.744;7.358;2022-12-11T01:42:00;42.53;;;20.27;;
37309;SDS011;23195;47.744;7.358;2022-12-11T01:47:03;49.17;;;22.80;;
37309;SDS011;23195;47.744;7.358;2022-12-11T01:49:34;49.63;;;23.10;;
37309;SDS011;23195;47.744;7.358;2022-12-11T01:52:10;51.40;;;22.43;;
37309;SDS011;23195;47.744;7.358;2022-12-11T01:54:42;63.77;;;27.10;;
37309;SDS011;23195;47.744;7.358;2022-12-11T01:57:14;66.17;;;27.73;;
37309;SDS011;23195;47.744;7.358;2022-12-11T01:59:42;57.47;;;25.33;;
37309;SDS011;23195;47.744;7.358;2022-12-11T02:02:18;62.53;;;25.97;;
37309;SDS011;23195;47.744;7.358;2022-12-11T02:04:51;57.77;;;24.53;;
37309;SDS011;23195;47.744;7.358;2022-12-11T02:07:38;52.40;;;22.83;;
37309;SDS011;23195;47.744;7.358;2022-12-11T02:10:16;48.07;;;21.03;;
37309;SDS011;23195;47.744;7.358;2022-12-11T02:18:15;45.77;;;19.90;;
37309;SDS011;23195;47.744;7.358;2022-12-11T02:29:06;49.60;;;21.47;;
37309;SDS011;23195;47.744;7.358;2022-12-11T02:31:50;50.17;;;21.40;;
37309;SDS011;23195;47.744;7.358;2022-12-11T02:37:03;73.87;;;26.87;;
37309;SDS011;23195;47.744;7.358;2022-12-11T02:39:36;83.67;;;28.93;;
37309;SDS011;23195;47.744;7.358;2022-12-11T02:42:11;90.73;;;29.33;;
37309;SDS011;23195;47.744;7.358;2022-12-11T02:44:43;94.20;;;31.17;;
37309;SDS011;23195;47.744;7.358;2022-12-11T02:47:11;87.57;;;29.57;;
37309;SDS011;23195;47.744;7.358;2022-12-11T02:49:42;90.80;;;30.00;;
37309;SDS011;23195;47.744;7.358;2022-12-11T02:52:13;90.37;;;29.30;;
37309;SDS011;23195;47.744;7.358;2022-12-11T02:54:48;86.33;;;29.40;;
37309;SDS011;23195;47.744;7.358;2022-12-11T02:59:54;86.40;;;30.30;;
37309;SDS011;23195;47.744;7.358;2022-12-11T03:02:23;86.10;;;30.43;;
37309;SDS011;23195;47.744;7.358;2022-12-11T03:04:52;94.23;;;30.77;;
37309;SDS011;23195;47.744;7.358;2022-12-11T03:07:22;92.40;;;29.70;;
37309;SDS011;23195;47.744;7.358;2022-12-11T03:09:51;90.47;;;29.30;;
37309;SDS011;23195;47.744;7.358;2022-12-11T03:12:19;88.40;;;29.67;;
37309;SDS011;23195;47.744;7.358;2022-12-11T03:14:54;91.57;;;29.37;;
37309;SDS011;23195;47.744;7.358;2022-12-11T03:22:46;86.40;;;28.00;;
37309;SDS011;23195;47.744;7.358;2022-12-11T03:25:23;83.93;;;28.57;;
37309;SDS011;23195;47.744;7.358;2022-12-11T03:28:12;89.20;;;28.30;;
37309;SDS011;23195;47.744;7.358;2022-12-11T03:30:51;87.93;;;27.53;;
37309;SDS011;23195;47.744;7.358;2022-12-11T03:33:29;87.07;;;28.40;;
37309;SDS011;23195;47.744;7.358;2022-12-11T03:36:01;81.57;;;27.53;;
37309;SDS011;23195;47.744;7.358;2022-12-11T03:38:36;78.37;;;25.90;;
37309;SDS011;23195;47.744;7.358;2022-12-11T03:41:21;84.23;;;27.50;;
37309;SDS011;23195;47.744;7.358;2022-12-11T03:43:58;81.00;;;26.23;;
37309;SDS011;23195;47.744;7.358;2022-12-11T03:46:27;78.00;;;25.37;;
37309;SDS011;23195;47.744;7.358;2022-12-11T03:49:12;83.10;;;26.43;;
37309;SDS011;23195;47.744;7.358;2022-12-11T03:51:54;75.40;;;24.77;;
37309;SDS011;23195;47.744;7.358;2022-12-11T03:54:25;69.07;;;24.83;;
37309;SDS011;23195;47.744;7.358;2022-12-11T03:56:54;76.70;;;25.67;;
37309;SDS011;23195;47.744;7.358;2022-12-11T03:59:24;78.77;;;26.23;;
37309;SDS011;23195;47.744;7.358;2022-12-11T04:01:52;78.90;;;27.27;;
37309;SDS011;23195;47.744;7.358;2022-12-11T04:04:19;77.03;;;27.57;;
37309;SDS011;23195;47.744;7.358;2022-12-11T04:06:49;73.30;;;26.30;;
37309;SDS011;23195;47.744;7.358;2022-12-11T04:09:15;76.27;;;26.80;;
37309;SDS011;23195;47.744;7.358;2022-12-11T04:11:52;74.97;;;26.43;;
37309;SDS011;23195;47.744;7.358;2022-12-11T04:14:20;73.83;;;26.97;;
37309;SDS011;23195;47.744;7.358;2022-12-11T04:17:07;70.90;;;25.57;;
37309;SDS011;23195;47.744;7.358;2022-12-11T04:19:36;65.43;;;24.67;;
37309;SDS011;23195;47.744;7.358;2022-12-11T04:22:20;69.50;;;25.83;;
37309;SDS011;23195;47.744;7.358;2022-12-11T04:25:04;68.23;;;24.53;;
37309;SDS011;23195;47.744;7.358;2022-12-11T04:27:39;63.17;;;25.20;;
37309;SDS011;23195;47.744;7.358;2022-12-11T04:30:18;62.73;;;24.00;;
37309;SDS011;23195;47.744;7.358;2022-12-11T04:32:49;68.47;;;25.03;;
37309;SDS011;23195;47.744;7.358;2022-12-11T04:35:21;62.90;;;24.20;;
37309;SDS011;23195;47.744;7.358;2022-12-11T04:37:47;64.40;;;25.20;;
37309;SDS011;23195;47.744;7.358;2022-12-11T04:40:17;62.10;;;23.97;;
37309;SDS011;23195;47.744;7.358;2022-12-11T04:42:45;68.97;;;25.47;;
37309;SDS011;23195;47.744;7.358;2022-12-11T04:45:19;68.00;;;25.23;;
37309;SDS011;23195;47.744;7.358;2022-12-11T04:47:47;72.33;;;26.73;;
37309;SDS011;23195;47.744;7.358;2022-12-11T04:50:18;69.50;;;25.27;;
37309;SDS011;23195;47.744;7.358;2022-12-11T04:52:47;80.70;;;28.50;;
37309;SDS011;23195;47.744;7.358;2022-12-11T04:55:13;85.60;;;29.73;;
37309;SDS011;23195;47.744;7.358;2022-12-11T04:57:39;78.60;;;28.93;;
37309;SDS011;23195;47.744;7.358;2022-12-11T05:00:05;73.77;;;27.03;;
37309;SDS011;23195;47.744;7.358;2022-12-11T05:02:37;69.23;;;27.50;;
37309;SDS011;23195;47.744;7.358;2022-12-11T05:05:04;74.90;;;26.33;;
37309;SDS011;23195;47.744;7.358;2022-12-11T05:07:30;69.47;;;27.53;;
37309;SDS011;23195;47.744;7.358;2022-12-11T05:09:57;70.57;;;26.67;;
37309;SDS011;23195;47.744;7.358;2022-12-11T05:12:22;67.07;;;25.60;;
37309;SDS011;23195;47.744;7.358;2022-12-11T05:14:52;67.67;;;26.80;;
37309;SDS011;23195;47.744;7.358;2022-12-11T05:17:22;71.63;;;27.87;;
37309;SDS011;23195;47.744;7.358;2022-12-11T05:19:49;71.47;;;27.10;;
37309;SDS011;23195;47.744;7.358;2022-12-11T05:22:17;72.63;;;28.00;;
37309;SDS011;23195;47.744;7.358;2022-12-11T05:24:43;70.03;;;27.10;;
37309;SDS011;23195;47.744;7.358;2022-12-11T05:27:09;71.57;;;27.57;;
37309;SDS011;23195;47.744;7.358;2022-12-11T05:29:36;72.73;;;26.77;;
37309;SDS011;23195;47.744;7.358;2022-12-11T05:32:02;64.20;;;26.30;;
37309;SDS011;23195;47.744;7.358;2022-12-11T05:34:38;65.27;;;26.77;;
37309;SDS011;23195;47.744;7.358;2022-12-11T05:37:04;67.80;;;26.57;;
37309;SDS011;23195;47.744;7.358;2022-12-11T05:39:33;63.57;;;26.03;;
37309;SDS011;23195;47.744;7.358;2022-12-11T05:41:59;66.23;;;26.77;;
37309;SDS011;23195;47.744;7.358;2022-12-11T05:44:43;67.23;;;26.63;;
37309;SDS011;23195;47.744;7.358;2022-12-11T05:47:08;67.60;;;26.13;;
37309;SDS011;23195;47.744;7.358;2022-12-11T05:49:35;49.03;;;21.37;;
37309;SDS011;23195;47.744;7.358;2022-12-11T05:52:12;53.20;;;21.90;;
37309;SDS011;23195;47.744;7.358;2022-12-11T05:54:38;42.00;;;18.23;;
37309;SDS011;23195;47.744;7.358;2022-12-11T05:57:04;50.90;;;20.33;;
37309;SDS011;23195;47.744;7.358;2022-12-11T05:59:33;45.47;;;20.17;;
37309;SDS011;23195;47.744;7.358;2022-12-11T06:01:59;49.60;;;20.40;;
37309;SDS011;23195;47.744;7.358;2022-12-11T06:04:27;49.90;;;19.87;;
37309;SDS011;23195;47.744;7.358;2022-12-11T06:06:53;51.63;;;20.50;;
37309;SDS011;23195;47.744;7.358;2022-12-11T06:09:19;47.57;;;19.87;;
37309;SDS011;23195;47.744;7.358;2022-12-11T06:11:45;44.97;;;19.97;;
37309;SDS011;23195;47.744;7.358;2022-12-11T06:14:11;47.90;;;19.33;;
37309;SDS011;23195;47.744;7.358;2022-12-11T06:16:37;46.67;;;20.00;;
37309;SDS011;23195;47.744;7.358;2022-12-11T06:19:03;48.93;;;19.60;;
37309;SDS011;23195;47.744;7.358;2022-12-11T06:21:31;51.23;;;19.33;;
37309;SDS011;23195;47.744;7.358;2022-12-11T06:24:03;49.47;;;19.50;;
37309;SDS011;23195;47.744;7.358;2022-12-11T06:26:29;49.63;;;20.10;;
37309;SDS011;23195;47.744;7.358;2022-12-11T06:28:56;49.00;;;18.93;;
37309;SDS011;23195;47.744;7.358;2022-12-11T06:31:22;45.47;;;18.43;;
37309;SDS011;23195;47.744;7.358;2022-12-11T06:33:48;50.93;;;20.10;;
37309;SDS011;23195;47.744;7.358;2022-12-11T06:36:18;49.83;;;19.27;;
37309;SDS011;23195;47.744;7.358;2022-12-11T06:38:45;44.50;;;18.60;;
37309;SDS011;23195;47.744;7.358;2022-12-11T06:41:14;54.57;;;21.30;;
37309;SDS011;23195;47.744;7.358;2022-12-11T06:43:42;48.07;;;19.57;;
37309;SDS011;23195;47.744;7.358;2022-12-11T06:46:09;51.20;;;20.73;;
37309;SDS011;23195;47.744;7.358;2022-12-11T06:48:37;53.33;;;20.90;;
37309;SDS011;23195;47.744;7.358;2022-12-11T06:51:05;52.60;;;20.87;;
37309;SDS011;23195;47.744;7.358;2022-12-11T06:53:32;53.57;;;22.37;;
37309;SDS011;23195;47.744;7.358;2022-12-11T06:56:02;56.37;;;22.57;;
37309;SDS011;23195;47.744;7.358;2022-12-11T06:58:32;56.50;;;22.77;;
37309;SDS011;23195;47.744;7.358;2022-12-11T07:01:03;52.03;;;21.57;;
37309;SDS011;23195;47.744;7.358;2022-12-11T07:03:29;55.00;;;20.87;;
37309;SDS011;23195;47.744;7.358;2022-12-11T07:05:59;50.60;;;20.53;;
37309;SDS011;23195;47.744;7.358;2022-12-11T07:08:26;50.70;;;20.50;;
37309;SDS011;23195;47.744;7.358;2022-12-11T07:11:07;50.53;;;20.47;;
37309;SDS011;23195;47.744;7.358;2022-12-11T07:14:02;47.43;;;19.67;;
37309;SDS011;23195;47.744;7.358;2022-12-11T07:17:00;53.23;;;21.37;;
37309;SDS011;23195;47.744;7.358;2022-12-11T07:19:38;58.87;;;21.83;;
37309;SDS011;23195;47.744;7.358;2022-12-11T07:22:14;56.60;;;22.13;;
37309;SDS011;23195;47.744;7.358;2022-12-11T07:25:10;61.10;;;24.47;;
37309;SDS011;23195;47.744;7.358;2022-12-11T07:28:11;56.73;;;21.43;;
37309;SDS011;23195;47.744;7.358;2022-12-11T07:31:15;55.07;;;22.50;;
37309;SDS011;23195;47.744;7.358;2022-12-11T07:34:07;55.80;;;21.57;;
37309;SDS011;23195;47.744;7.358;2022-12-11T07:36:39;55.47;;;22.00;;
37309;SDS011;23195;47.744;7.358;2022-12-11T07:39:22;55.33;;;21.47;;
37309;SDS011;23195;47.744;7.358;2022-12-11T07:41:51;55.93;;;22.47;;
37309;SDS011;23195;47.744;7.358;2022-12-11T07:44:21;55.57;;;21.80;;
37309;SDS011;23195;47.744;7.358;2022-12-11T07:46:57;55.17;;;22.10;;
37309;SDS011;23195;47.744;7.358;2022-12-11T07:49:33;51.63;;;21.07;;
37309;SDS011;23195;47.744;7.358;2022-12-11T07:52:01;57.33;;;23.13;;
37309;SDS011;23195;47.744;7.358;2022-12-11T07:54:51;50.53;;;20.37;;
37309;SDS011;23195;47.744;7.358;2022-12-11T07:57:29;56.60;;;21.67;;
37309;SDS011;23195;47.744;7.358;2022-12-11T07:59:57;68.50;;;30.23;;
37309;SDS011;23195;47.744;7.358;2022-12-11T08:02:36;55.47;;;24.40;;
37309;SDS011;23195;47.744;7.358;2022-12-11T08:05:02;58.07;;;22.97;;
37309;SDS011;23195;47.744;7.358;2022-12-11T08:07:37;60.53;;;23.00;;
37309;SDS011;23195;47.744;7.358;2022-12-11T08:10:07;51.27;;;21.50;;
37309;SDS011;23195;47.744;7.358;2022-12-11T08:16:16;53.70;;;22.00;;
37309;SDS011;23195;47.744;7.358;2022-12-11T08:18:53;53.07;;;22.20;;
37309;SDS011;23195;47.744;7.358;2022-12-11T08:21:39;56.53;;;22.47;;
37309;SDS011;23195;47.744;7.358;2022-12-11T08:24:32;59.00;;;24.47;;
37309;SDS011;23195;47.744;7.358;2022-12-11T08:27:08;60.37;;;25.07;;
37309;SDS011;23195;47.744;7.358;2022-12-11T08:29:54;57.00;;;22.70;;
37309;SDS011;23195;47.744;7.358;2022-12-11T08:32:33;45.97;;;19.67;;
37309;SDS011;23195;47.744;7.358;2022-12-11T08:35:02;51.57;;;21.70;;
37309;SDS011;23195;47.744;7.358;2022-12-11T08:43:55;47.07;;;19.50;;
37309;SDS011;23195;47.744;7.358;2022-12-11T08:47:02;47.30;;;19.83;;
37309;SDS011;23195;47.744;7.358;2022-12-11T08:49:47;40.93;;;17.73;;
37309;SDS011;23195;47.744;7.358;2022-12-11T08:52:15;45.70;;;18.83;;
37309;SDS011;23195;47.744;7.358;2022-12-11T08:54:44;48.13;;;20.27;;
37309;SDS011;23195;47.744;7.358;2022-12-11T08:57:24;50.80;;;21.63;;
37309;SDS011;23195;47.744;7.358;2022-12-11T09:00:00;48.50;;;21.73;;
37309;SDS011;23195;47.744;7.358;2022-12-11T09:02:26;48.13;;;20.57;;
37309;SDS011;23195;47.744;7.358;2022-12-11T09:04:57;49.30;;;21.50;;
37309;SDS011;23195;47.744;7.358;2022-12-11T09:07:36;51.27;;;21.30;;
37309;SDS011;23195;47.744;7.358;2022-12-11T09:10:24;53.07;;;21.27;;
37309;SDS011;23195;47.744;7.358;2022-12-11T09:13:01;49.03;;;20.03;;
37309;SDS011;23195;47.744;7.358;2022-12-11T09:15:30;47.07;;;20.23;;
37309;SDS011;23195;47.744;7.358;2022-12-11T09:18:02;47.73;;;20.63;;
37309;SDS011;23195;47.744;7.358;2022-12-11T09:20:56;46.97;;;19.50;;
37309;SDS011;23195;47.744;7.358;2022-12-11T09:24:04;52.27;;;22.77;;
37309;SDS011;23195;47.744;7.358;2022-12-11T09:26:44;48.30;;;20.97;;
37309;SDS011;23195;47.744;7.358;2022-12-11T09:29:33;49.30;;;20.87;;
37309;SDS011;23195;47.744;7.358;2022-12-11T09:32:05;50.83;;;21.70;;
37309;SDS011;23195;47.744;7.358;2022-12-11T09:34:39;52.83;;;22.23;;
37309;SDS011;23195;47.744;7.358;2022-12-11T09:37:26;55.83;;;24.17;;
37309;SDS011;23195;47.744;7.358;2022-12-11T09:40:07;48.70;;;21.07;;
37309;SDS011;23195;47.744;7.358;2022-12-11T09:42:48;50.43;;;20.87;;
37309;SDS011;23195;47.744;7.358;2022-12-11T09:45:25;50.60;;;21.60;;
37309;SDS011;23195;47.744;7.358;2022-12-11T09:50:55;53.07;;;23.57;;
37309;SDS011;23195;47.744;7.358;2022-12-11T09:53:38;52.97;;;22.83;;
37309;SDS011;23195;47.744;7.358;2022-12-11T09:56:25;59.43;;;24.60;;
37309;SDS011;23195;47.744;7.358;2022-12-11T09:59:26;52.93;;;22.57;;
37309;SDS011;23195;47.744;7.358;2022-12-11T10:05:26;51.10;;;21.63;;
37309;SDS011;23195;47.744;7.358;2022-12-11T10:14:46;52.17;;;22.60;;
37309;SDS011;23195;47.744;7.358;2022-12-11T10:17:38;45.60;;;21.13;;
37309;SDS011;23195;47.744;7.358;2022-12-11T10:26:06;46.87;;;20.50;;
37309;SDS011;23195;47.744;7.358;2022-12-11T10:35:01;44.63;;;19.27;;
37309;SDS011;23195;47.744;7.358;2022-12-11T10:37:34;44.37;;;18.17;;
37309;SDS011;23195;47.744;7.358;2022-12-11T10:40:19;41.13;;;18.70;;
37309;SDS011;23195;47.744;7.358;2022-12-11T10:42:53;42.77;;;18.83;;
37309;SDS011;23195;47.744;7.358;2022-12-11T10:45:38;43.23;;;18.60;;
37309;SDS011;23195;47.744;7.358;2022-12-11T10:51:32;41.73;;;18.67;;
37309;SDS011;23195;47.744;7.358;2022-12-11T10:54:15;37.43;;;16.80;;
37309;SDS011;23195;47.744;7.358;2022-12-11T10:57:04;44.67;;;17.87;;
37309;SDS011;23195;47.744;7.358;2022-12-11T10:59:48;40.27;;;17.73;;
37309;SDS011;23195;47.744;7.358;2022-12-11T11:02:55;38.63;;;18.20;;
37309;SDS011;23195;47.744;7.358;2022-12-11T11:05:35;41.53;;;18.47;;
37309;SDS011;23195;47.744;7.358;2022-12-11T11:08:18;47.53;;;18.90;;
37309;SDS011;23195;47.744;7.358;2022-12-11T11:10:57;46.60;;;19.33;;
37309;SDS011;23195;47.744;7.358;2022-12-11T11:13:41;48.20;;;20.53;;
37309;SDS011;23195;47.744;7.358;2022-12-11T11:16:24;40.40;;;17.67;;
37309;SDS011;23195;47.744;7.358;2022-12-11T11:22:11;46.10;;;19.77;;
37309;SDS011;23195;47.744;7.358;2022-12-11T11:24:58;51.87;;;24.70;;
37309;SDS011;23195;47.744;7.358;2022-12-11T11:33:17;40.90;;;17.60;;
37309;SDS011;23195;47.744;7.358;2022-12-11T11:35:59;37.50;;;17.33;;
37309;SDS011;23195;47.744;7.358;2022-12-11T11:38:40;40.00;;;18.00;;
37309;SDS011;23195;47.744;7.358;2022-12-11T11:41:28;38.40;;;17.27;;
37309;SDS011;23195;47.744;7.358;2022-12-11T11:44:26;34.70;;;16.20;;
37309;SDS011;23195;47.744;7.358;2022-12-11T11:47:18;37.43;;;16.47;;
37309;SDS011;23195;47.744;7.358;2022-12-11T11:59:18;40.40;;;17.43;;
37309;SDS011;23195;47.744;7.358;2022-12-11T12:02:08;42.23;;;16.83;;
37309;SDS011;23195;47.744;7.358;2022-12-11T12:04:58;43.10;;;18.93;;
37309;SDS011;23195;47.744;7.358;2022-12-11T12:07:46;37.20;;;16.73;;
37309;SDS011;23195;47.744;7.358;2022-12-11T12:11:10;34.03;;;16.07;;
37309;SDS011;23195;47.744;7.358;2022-12-11T12:25:47;40.67;;;16.60;;
37309;SDS011;23195;47.744;7.358;2022-12-11T12:31:20;44.40;;;18.77;;
37309;SDS011;23195;47.744;7.358;2022-12-11T12:34:32;45.60;;;19.07;;
37309;SDS011;23195;47.744;7.358;2022-12-11T12:46:19;43.57;;;19.20;;
37309;SDS011;23195;47.744;7.358;2022-12-11T12:49:13;46.93;;;19.33;;
37309;SDS011;23195;47.744;7.358;2022-12-11T12:52:14;43.47;;;18.30;;
37309;SDS011;23195;47.744;7.358;2022-12-11T12:54:46;44.57;;;18.67;;
37309;SDS011;23195;47.744;7.358;2022-12-11T13:03:12;41.80;;;17.70;;
37309;SDS011;23195;47.744;7.358;2022-12-11T13:08:25;40.87;;;18.33;;
37309;SDS011;23195;47.744;7.358;2022-12-11T13:11:29;45.83;;;17.47;;
37309;SDS011;23195;47.744;7.358;2022-12-11T13:20:15;43.90;;;17.97;;
37309;SDS011;23195;47.744;7.358;2022-12-11T13:28:55;40.43;;;17.40;;
37309;SDS011;23195;47.744;7.358;2022-12-11T13:31:38;39.27;;;16.07;;
37309;SDS011;23195;47.744;7.358;2022-12-11T13:34:20;40.67;;;17.80;;
37309;SDS011;23195;47.744;7.358;2022-12-11T13:40:01;41.23;;;16.87;;
37309;SDS011;23195;47.744;7.358;2022-12-11T13:42:47;41.23;;;17.70;;
37309;SDS011;23195;47.744;7.358;2022-12-11T13:45:27;41.43;;;17.33;;
37309;SDS011;23195;47.744;7.358;2022-12-11T13:51:29;38.07;;;16.37;;
37309;SDS011;23195;47.744;7.358;2022-12-11T14:00:29;48.07;;;19.73;;
37309;SDS011;23195;47.744;7.358;2022-12-11T14:03:14;43.93;;;18.47;;
37309;SDS011;23195;47.744;7.358;2022-12-11T14:06:12;46.60;;;19.37;;
37309;SDS011;23195;47.744;7.358;2022-12-11T14:08:55;50.73;;;19.90;;
37309;SDS011;23195;47.744;7.358;2022-12-11T14:11:50;42.63;;;18.73;;
37309;SDS011;23195;47.744;7.358;2022-12-11T14:14:40;42.60;;;17.53;;
37309;SDS011;23195;47.744;7.358;2022-12-11T14:17:14;45.10;;;18.43;;
37309;SDS011;23195;47.744;7.358;2022-12-11T14:20:02;41.63;;;17.13;;
37309;SDS011;23195;47.744;7.358;2022-12-11T14:22:37;42.40;;;17.20;;
37309;SDS011;23195;47.744;7.358;2022-12-11T14:25:12;45.63;;;18.43;;
37309;SDS011;23195;47.744;7.358;2022-12-11T14:28:14;43.50;;;18.80;;
37309;SDS011;23195;47.744;7.358;2022-12-11T14:30:52;47.67;;;19.93;;
37309;SDS011;23195;47.744;7.358;2022-12-11T14:33:30;48.87;;;19.53;;
37309;SDS011;23195;47.744;7.358;2022-12-11T14:36:17;44.50;;;18.63;;
37309;SDS011;23195;47.744;7.358;2022-12-11T14:39:10;43.57;;;19.03;;
37309;SDS011;23195;47.744;7.358;2022-12-11T14:42:42;42.63;;;18.23;;
37309;SDS011;23195;47.744;7.358;2022-12-11T14:48:09;51.57;;;19.93;;
37309;SDS011;23195;47.744;7.358;2022-12-11T14:50:49;51.03;;;20.27;;
37309;SDS011;23195;47.744;7.358;2022-12-11T14:53:33;57.27;;;20.53;;
37309;SDS011;23195;47.744;7.358;2022-12-11T14:56:24;54.53;;;21.53;;
37309;SDS011;23195;47.744;7.358;2022-12-11T14:59:22;59.90;;;23.20;;
37309;SDS011;23195;47.744;7.358;2022-12-11T15:02:16;58.50;;;22.43;;
37309;SDS011;23195;47.744;7.358;2022-12-11T15:07:51;69.33;;;27.37;;
37309;SDS011;23195;47.744;7.358;2022-12-11T15:11:03;58.57;;;23.73;;
37309;SDS011;23195;47.744;7.358;2022-12-11T15:16:39;60.13;;;23.33;;
37309;SDS011;23195;47.744;7.358;2022-12-11T15:19:31;59.30;;;24.03;;
37309;SDS011;23195;47.744;7.358;2022-12-11T15:22:12;63.13;;;26.27;;
37309;SDS011;23195;47.744;7.358;2022-12-11T15:31:21;60.53;;;24.77;;
37309;SDS011;23195;47.744;7.358;2022-12-11T15:34:22;71.40;;;28.20;;
37309;SDS011;23195;47.744;7.358;2022-12-11T15:37:15;70.63;;;27.73;;
37309;SDS011;23195;47.744;7.358;2022-12-11T15:43:08;72.23;;;27.33;;
37309;SDS011;23195;47.744;7.358;2022-12-11T15:45:41;78.70;;;30.03;;
37309;SDS011;23195;47.744;7.358;2022-12-11T15:48:37;79.73;;;29.13;;
37309;SDS011;23195;47.744;7.358;2022-12-11T15:51:22;77.03;;;29.20;;
37309;SDS011;23195;47.744;7.358;2022-12-11T15:54:19;78.70;;;30.30;;
37309;SDS011;23195;47.744;7.358;2022-12-11T15:56:55;81.03;;;30.30;;
37309;SDS011;23195;47.744;7.358;2022-12-11T15:59:36;83.50;;;30.57;;
37309;SDS011;23195;47.744;7.358;2022-12-11T16:02:18;80.47;;;31.07;;
37309;SDS011;23195;47.744;7.358;2022-12-11T16:05:15;83.90;;;31.53;;
37309;SDS011;23195;47.744;7.358;2022-12-11T16:08:01;85.73;;;31.63;;
37309;SDS011;23195;47.744;7.358;2022-12-11T16:10:59;72.30;;;27.03;;
37309;SDS011;23195;47.744;7.358;2022-12-11T16:17:04;72.00;;;27.87;;
37309;SDS011;23195;47.744;7.358;2022-12-11T16:20:01;75.87;;;30.60;;
37309;SDS011;23195;47.744;7.358;2022-12-11T16:22:52;65.90;;;26.13;;
37309;SDS011;23195;47.744;7.358;2022-12-11T16:25:51;73.47;;;27.27;;
37309;SDS011;23195;47.744;7.358;2022-12-11T16:32:24;99.00;;;34.53;;
37309;SDS011;23195;47.744;7.358;2022-12-11T16:35:28;79.80;;;29.80;;
37309;SDS011;23195;47.744;7.358;2022-12-11T16:38:24;86.30;;;32.27;;
37309;SDS011;23195;47.744;7.358;2022-12-11T16:44:35;89.67;;;33.87;;
37309;SDS011;23195;47.744;7.358;2022-12-11T16:50:26;98.07;;;38.40;;
37309;SDS011;23195;47.744;7.358;2022-12-11T16:52:57;96.03;;;37.13;;
37309;SDS011;23195;47.744;7.358;2022-12-11T16:55:34;105.23;;;39.43;;
37309;SDS011;23195;47.744;7.358;2022-12-11T16:58:06;91.07;;;36.97;;
37309;SDS011;23195;47.744;7.358;2022-12-11T17:00:45;96.40;;;36.57;;
37309;SDS011;23195;47.744;7.358;2022-12-11T17:03:30;88.63;;;35.07;;
37309;SDS011;23195;47.744;7.358;2022-12-11T17:05:56;100.47;;;36.97;;
37309;SDS011;23195;47.744;7.358;2022-12-11T17:08:29;97.03;;;37.90;;
37309;SDS011;23195;47.744;7.358;2022-12-11T17:11:08;93.50;;;37.53;;
37309;SDS011;23195;47.744;7.358;2022-12-11T17:13:41;95.40;;;36.23;;
37309;SDS011;23195;47.744;7.358;2022-12-11T17:16:15;113.83;;;40.87;;
37309;SDS011;23195;47.744;7.358;2022-12-11T17:18:48;112.57;;;42.90;;
37309;SDS011;23195;47.744;7.358;2022-12-11T17:21:17;107.13;;;42.53;;
37309;SDS011;23195;47.744;7.358;2022-12-11T17:23:49;103.57;;;40.43;;
37309;SDS011;23195;47.744;7.358;2022-12-11T17:26:34;98.50;;;36.87;;
37309;SDS011;23195;47.744;7.358;2022-12-11T17:29:15;97.77;;;37.07;;
37309;SDS011;23195;47.744;7.358;2022-12-11T17:32:04;107.87;;;42.83;;
37309;SDS011;23195;47.744;7.358;2022-12-11T17:34:42;109.13;;;39.33;;
37309;SDS011;23195;47.744;7.358;2022-12-11T17:37:12;106.00;;;39.17;;
37309;SDS011;23195;47.744;7.358;2022-12-11T17:39:38;108.23;;;39.73;;
37309;SDS011;23195;47.744;7.358;2022-12-11T17:42:06;105.97;;;40.27;;
37309;SDS011;23195;47.744;7.358;2022-12-11T17:44:47;104.77;;;38.13;;
37309;SDS011;23195;47.744;7.358;2022-12-11T17:47:17;107.03;;;39.67;;
37309;SDS011;23195;47.744;7.358;2022-12-11T17:49:53;101.53;;;39.90;;
37309;SDS011;23195;47.744;7.358;2022-12-11T17:52:37;106.93;;;39.97;;
37309;SDS011;23195;47.744;7.358;2022-12-11T17:55:18;110.03;;;41.23;;
37309;SDS011;23195;47.744;7.358;2022-12-11T17:57:54;106.93;;;39.63;;
37309;SDS011;23195;47.744;7.358;2022-12-11T18:00:30;110.20;;;43.27;;
37309;SDS011;23195;47.744;7.358;2022-12-11T18:03:12;115.60;;;42.63;;
37309;SDS011;23195;47.744;7.358;2022-12-11T18:05:51;135.57;;;50.37;;
37309;SDS011;23195;47.744;7.358;2022-12-11T18:08:23;132.73;;;48.00;;
37309;SDS011;23195;47.744;7.358;2022-12-11T18:10:50;130.77;;;51.30;;